sensor_id;sensor_type;location;lat;lon;timestamp;temperature;humidity
9977;DHT22;5029;47.378;11.776;2023-01-24T00:02:26;-4.40;99.90
9977;DHT22;5029;47.378;11.776;2023-01-24T00:07:30;-4.90;99.90
9977;DHT22;5029;47.378;11.776;2023-01-24T00:12:33;-4.90;99.90
9977;DHT22;5029;47.378;11.776;2023-01-24T00:17:38;-4.80;99.90
9977;DHT22;5029;47.378;11.776;2023-01-24T00:22:42;-4.80;99.90
9977;DHT22;5029;47.378;11.776;2023-01-24T00:27:45;-4.80;99.90
9977;DHT22;5029;47.378;11.776;2023-01-24T00:32:50;-4.90;99.90
9977;DHT22;5029;47.378;11.776;2023-01-24T00:37:53;-5.10;99.90
9977;DHT22;5029;47.378;11.776;2023-01-24T00:42:57;-5.30;99.90
9977;DHT22;5029;47.378;11.776;2023-01-24T00:48:01;-5.40;99.90
9977;DHT22;5029;47.378;11.776;2023-01-24T00:53:05;-5.20;99.90
9977;DHT22;5029;47.378;11.776;2023-01-24T00:58:09;-5.10;99.90
9977;DHT22;5029;47.378;11.776;2023-01-24T01:03:16;-5.10;99.90
9977;DHT22;5029;47.378;11.776;2023-01-24T01:08:19;-5.10;99.90
9977;DHT22;5029;47.378;11.776;2023-01-24T01:13:23;-5.20;99.90
9977;DHT22;5029;47.378;11.776;2023-01-24T01:18:28;-5.50;99.90
9977;DHT22;5029;47.378;11.776;2023-01-24T01:23:31;-5.80;99.90
9977;DHT22;5029;47.378;11.776;2023-01-24T01:28:36;-5.70;99.90
9977;DHT22;5029;47.378;11.776;2023-01-24T01:33:42;-5.60;99.90
9977;DHT22;5029;47.378;11.776;2023-01-24T01:38:46;-5.50;99.90
9977;DHT22;5029;47.378;11.776;2023-01-24T01:43:49;-5.30;99.90
9977;DHT22;5029;47.378;11.776;2023-01-24T01:49:15;-5.10;99.90
9977;DHT22;5029;47.378;11.776;2023-01-24T01:54:22;-5.10;99.90
9977;DHT22;5029;47.378;11.776;2023-01-24T01:59:30;-5.10;99.90
9977;DHT22;5029;47.378;11.776;2023-01-24T02:04:37;-5.30;99.90
9977;DHT22;5029;47.378;11.776;2023-01-24T02:09:43;-5.40;99.90
9977;DHT22;5029;47.378;11.776;2023-01-24T02:14:48;-5.30;99.90
9977;DHT22;5029;47.378;11.776;2023-01-24T02:20:30;-5.20;99.90
9977;DHT22;5029;47.378;11.776;2023-01-24T02:25:39;-5.50;99.90
9977;DHT22;5029;47.378;11.776;2023-01-24T02:30:45;-5.30;99.90
9977;DHT22;5029;47.378;11.776;2023-01-24T02:35:49;-5.20;99.90
9977;DHT22;5029;47.378;11.776;2023-01-24T02:40:54;-5.00;99.90
9977;DHT22;5029;47.378;11.776;2023-01-24T02:46:00;-5.10;99.90
9977;DHT22;5029;47.378;11.776;2023-01-24T02:51:04;-5.30;99.90
9977;DHT22;5029;47.378;11.776;2023-01-24T02:56:25;-5.30;99.90
9977;DHT22;5029;47.378;11.776;2023-01-24T03:01:47;-5.20;99.90
9977;DHT22;5029;47.378;11.776;2023-01-24T03:06:50;-5.10;99.90
9977;DHT22;5029;47.378;11.776;2023-01-24T03:11:54;-5.30;99.90
9977;DHT22;5029;47.378;11.776;2023-01-24T03:17:16;-5.20;99.90
9977;DHT22;5029;47.378;11.776;2023-01-24T03:22:37;-5.10;99.90
9977;DHT22;5029;47.378;11.776;2023-01-24T03:28:02;-5.00;99.90
9977;DHT22;5029;47.378;11.776;2023-01-24T03:33:25;-5.00;99.90
9977;DHT22;5029;47.378;11.776;2023-01-24T03:38:45;-5.10;99.90
9977;DHT22;5029;47.378;11.776;2023-01-24T03:44:06;-5.10;99.90
9977;DHT22;5029;47.378;11.776;2023-01-24T03:49:11;-5.10;99.90
9977;DHT22;5029;47.378;11.776;2023-01-24T03:54:15;-5.20;99.90
9977;DHT22;5029;47.378;11.776;2023-01-24T03:59:18;-5.10;99.90
9977;DHT22;5029;47.378;11.776;2023-01-24T04:04:23;-5.10;99.90
9977;DHT22;5029;47.378;11.776;2023-01-24T04:09:46;-5.20;99.90
9977;DHT22;5029;47.378;11.776;2023-01-24T04:14:50;-4.90;99.90
9977;DHT22;5029;47.378;11.776;2023-01-24T04:19:54;-4.80;99.90
9977;DHT22;5029;47.378;11.776;2023-01-24T04:24:58;-4.70;99.90
9977;DHT22;5029;47.378;11.776;2023-01-24T04:30:01;-4.70;99.90
9977;DHT22;5029;47.378;11.776;2023-01-24T04:35:07;-4.80;99.90
9977;DHT22;5029;47.378;11.776;2023-01-24T04:40:11;-4.80;99.90
9977;DHT22;5029;47.378;11.776;2023-01-24T04:45:16;-4.80;99.90
9977;DHT22;5029;47.378;11.776;2023-01-24T04:50:21;-4.70;99.90
9977;DHT22;5029;47.378;11.776;2023-01-24T04:55:25;-4.70;99.90
9977;DHT22;5029;47.378;11.776;2023-01-24T05:00:28;-4.70;99.90
9977;DHT22;5029;47.378;11.776;2023-01-24T05:05:33;-4.70;99.90
9977;DHT22;5029;47.378;11.776;2023-01-24T05:10:36;-4.60;99.90
9977;DHT22;5029;47.378;11.776;2023-01-24T05:15:46;-4.60;99.90
9977;DHT22;5029;47.378;11.776;2023-01-24T05:20:51;-4.50;99.90
9977;DHT22;5029;47.378;11.776;2023-01-24T05:25:58;-4.50;99.90
9977;DHT22;5029;47.378;11.776;2023-01-24T05:31:03;-4.40;99.90
9977;DHT22;5029;47.378;11.776;2023-01-24T05:36:13;-4.50;99.90
9977;DHT22;5029;47.378;11.776;2023-01-24T05:41:18;-4.40;99.90
9977;DHT22;5029;47.378;11.776;2023-01-24T05:46:22;-4.50;99.90
9977;DHT22;5029;47.378;11.776;2023-01-24T05:51:27;-4.50;99.90
9977;DHT22;5029;47.378;11.776;2023-01-24T05:56:31;-4.50;99.90
9977;DHT22;5029;47.378;11.776;2023-01-24T06:01:34;-4.50;99.90
9977;DHT22;5029;47.378;11.776;2023-01-24T06:06:39;-4.50;99.90
9977;DHT22;5029;47.378;11.776;2023-01-24T06:11:42;-4.50;99.90
9977;DHT22;5029;47.378;11.776;2023-01-24T06:16:46;-4.60;99.90
9977;DHT22;5029;47.378;11.776;2023-01-24T06:21:59;-4.60;99.90
9977;DHT22;5029;47.378;11.776;2023-01-24T06:27:05;-4.50;99.90
9977;DHT22;5029;47.378;11.776;2023-01-24T06:32:20;-4.60;99.90
9977;DHT22;5029;47.378;11.776;2023-01-24T06:37:36;-4.60;99.90
9977;DHT22;5029;47.378;11.776;2023-01-24T06:42:41;-4.60;99.90
9977;DHT22;5029;47.378;11.776;2023-01-24T06:47:47;-4.80;99.90
9977;DHT22;5029;47.378;11.776;2023-01-24T06:52:52;-4.80;99.90
9977;DHT22;5029;47.378;11.776;2023-01-24T06:57:56;-4.70;99.90
9977;DHT22;5029;47.378;11.776;2023-01-24T07:03:00;-4.80;99.90
9977;DHT22;5029;47.378;11.776;2023-01-24T07:08:09;-4.90;99.90
9977;DHT22;5029;47.378;11.776;2023-01-24T07:13:19;-4.90;99.90
9977;DHT22;5029;47.378;11.776;2023-01-24T07:18:23;-4.80;99.90
9977;DHT22;5029;47.378;11.776;2023-01-24T07:23:28;-4.70;99.90
9977;DHT22;5029;47.378;11.776;2023-01-24T07:28:34;-4.70;99.90
9977;DHT22;5029;47.378;11.776;2023-01-24T07:33:37;-4.60;99.90
9977;DHT22;5029;47.378;11.776;2023-01-24T07:38:42;-4.60;99.90
9977;DHT22;5029;47.378;11.776;2023-01-24T07:43:45;-4.70;99.90
9977;DHT22;5029;47.378;11.776;2023-01-24T07:48:48;-4.40;99.90
9977;DHT22;5029;47.378;11.776;2023-01-24T07:53:53;-4.30;99.90
9977;DHT22;5029;47.378;11.776;2023-01-24T07:58:57;-4.30;99.90
9977;DHT22;5029;47.378;11.776;2023-01-24T08:04:00;-4.20;99.90
9977;DHT22;5029;47.378;11.776;2023-01-24T08:09:05;-4.20;99.90
9977;DHT22;5029;47.378;11.776;2023-01-24T08:14:09;-4.20;99.90
9977;DHT22;5029;47.378;11.776;2023-01-24T08:19:24;-4.60;99.90
9977;DHT22;5029;47.378;11.776;2023-01-24T08:24:49;-4.50;99.90
9977;DHT22;5029;47.378;11.776;2023-01-24T08:29:52;-4.60;99.90
9977;DHT22;5029;47.378;11.776;2023-01-24T08:34:56;-4.60;99.90
9977;DHT22;5029;47.378;11.776;2023-01-24T08:40:01;-4.60;99.90
9977;DHT22;5029;47.378;11.776;2023-01-24T08:45:09;-4.60;99.90
9977;DHT22;5029;47.378;11.776;2023-01-24T08:50:13;-4.50;99.90
9977;DHT22;5029;47.378;11.776;2023-01-24T08:55:19;-4.40;99.90
9977;DHT22;5029;47.378;11.776;2023-01-24T09:00:23;-4.20;99.90
9977;DHT22;5029;47.378;11.776;2023-01-24T09:05:27;-4.20;99.90
9977;DHT22;5029;47.378;11.776;2023-01-24T09:10:32;-4.20;99.90
9977;DHT22;5029;47.378;11.776;2023-01-24T09:15:36;-3.80;99.90
9977;DHT22;5029;47.378;11.776;2023-01-24T09:20:40;-4.20;99.90
9977;DHT22;5029;47.378;11.776;2023-01-24T09:25:51;-3.80;99.90
9977;DHT22;5029;47.378;11.776;2023-01-24T09:30:55;-3.80;99.90
9977;DHT22;5029;47.378;11.776;2023-01-24T09:36:00;-3.50;99.90
9977;DHT22;5029;47.378;11.776;2023-01-24T09:41:12;-3.30;99.90
9977;DHT22;5029;47.378;11.776;2023-01-24T09:46:25;-3.30;99.90
9977;DHT22;5029;47.378;11.776;2023-01-24T09:51:31;-2.80;99.90
9977;DHT22;5029;47.378;11.776;2023-01-24T09:56:42;-3.00;99.90
9977;DHT22;5029;47.378;11.776;2023-01-24T10:01:46;-2.80;99.90
9977;DHT22;5029;47.378;11.776;2023-01-24T10:07:24;-2.40;99.90
9977;DHT22;5029;47.378;11.776;2023-01-24T10:12:41;-2.80;99.90
9977;DHT22;5029;47.378;11.776;2023-01-24T10:18:06;-2.20;99.90
9977;DHT22;5029;47.378;11.776;2023-01-24T10:23:16;-2.80;99.90
9977;DHT22;5029;47.378;11.776;2023-01-24T10:28:27;-2.60;99.90
9977;DHT22;5029;47.378;11.776;2023-01-24T10:33:33;-2.50;99.90
9977;DHT22;5029;47.378;11.776;2023-01-24T10:38:37;-3.00;99.90
9977;DHT22;5029;47.378;11.776;2023-01-24T10:43:43;-3.30;99.90
9977;DHT22;5029;47.378;11.776;2023-01-24T10:48:49;-3.40;99.90
9977;DHT22;5029;47.378;11.776;2023-01-24T10:54:00;-3.40;99.90
9977;DHT22;5029;47.378;11.776;2023-01-24T10:59:09;-3.30;99.90
9977;DHT22;5029;47.378;11.776;2023-01-24T11:04:20;-3.10;99.90
9977;DHT22;5029;47.378;11.776;2023-01-24T11:09:30;-2.80;99.90
9977;DHT22;5029;47.378;11.776;2023-01-24T11:14:37;-2.80;99.90
9977;DHT22;5029;47.378;11.776;2023-01-24T11:19:41;-2.30;99.90
9977;DHT22;5029;47.378;11.776;2023-01-24T11:24:45;-2.30;99.90
9977;DHT22;5029;47.378;11.776;2023-01-24T11:30:05;-2.30;99.90
9977;DHT22;5029;47.378;11.776;2023-01-24T11:35:11;-2.40;99.90
9977;DHT22;5029;47.378;11.776;2023-01-24T11:40:25;-2.60;99.90
9977;DHT22;5029;47.378;11.776;2023-01-24T11:45:54;-2.80;99.90
9977;DHT22;5029;47.378;11.776;2023-01-24T11:51:05;-3.00;99.90
9977;DHT22;5029;47.378;11.776;2023-01-24T11:56:22;-3.00;99.90
9977;DHT22;5029;47.378;11.776;2023-01-24T12:01:42;-2.90;99.90
9977;DHT22;5029;47.378;11.776;2023-01-24T12:06:55;-3.00;99.90
9977;DHT22;5029;47.378;11.776;2023-01-24T12:12:10;-3.00;99.90
9977;DHT22;5029;47.378;11.776;2023-01-24T12:17:32;-3.10;99.90
9977;DHT22;5029;47.378;11.776;2023-01-24T12:22:41;-3.20;99.90
9977;DHT22;5029;47.378;11.776;2023-01-24T12:28:01;-2.80;99.90
9977;DHT22;5029;47.378;11.776;2023-01-24T12:33:13;-2.70;99.90
9977;DHT22;5029;47.378;11.776;2023-01-24T12:38:22;-3.00;99.90
9977;DHT22;5029;47.378;11.776;2023-01-24T12:43:32;-2.60;99.90
9977;DHT22;5029;47.378;11.776;2023-01-24T12:48:42;-2.60;99.90
9977;DHT22;5029;47.378;11.776;2023-01-24T12:53:59;-2.00;99.90
9977;DHT22;5029;47.378;11.776;2023-01-24T12:59:03;-1.70;99.90
9977;DHT22;5029;47.378;11.776;2023-01-24T13:04:18;-1.10;99.90
9977;DHT22;5029;47.378;11.776;2023-01-24T13:09:27;-0.40;99.90
9977;DHT22;5029;47.378;11.776;2023-01-24T13:14:34;-0.50;99.90
9977;DHT22;5029;47.378;11.776;2023-01-24T13:25:25;-0.90;99.90
9977;DHT22;5029;47.378;11.776;2023-01-24T13:30:34;-0.90;99.90
9977;DHT22;5029;47.378;11.776;2023-01-24T13:35:49;-0.40;99.90
9977;DHT22;5029;47.378;11.776;2023-01-24T13:40:58;-0.40;99.90
9977;DHT22;5029;47.378;11.776;2023-01-24T13:46:03;-0.50;99.90
9977;DHT22;5029;47.378;11.776;2023-01-24T13:51:33;-0.80;99.90
9977;DHT22;5029;47.378;11.776;2023-01-24T13:57:17;-0.90;99.90
9977;DHT22;5029;47.378;11.776;2023-01-24T14:02:26;-0.70;99.90
9977;DHT22;5029;47.378;11.776;2023-01-24T14:07:39;-0.90;99.90
9977;DHT22;5029;47.378;11.776;2023-01-24T14:12:52;-0.20;99.90
9977;DHT22;5029;47.378;11.776;2023-01-24T14:17:56;-0.50;99.90
9977;DHT22;5029;47.378;11.776;2023-01-24T14:23:04;-0.40;99.90
9977;DHT22;5029;47.378;11.776;2023-01-24T14:28:18;-0.90;99.90
9977;DHT22;5029;47.378;11.776;2023-01-24T14:33:29;-0.80;99.90
9977;DHT22;5029;47.378;11.776;2023-01-24T14:38:37;-0.50;99.90
9977;DHT22;5029;47.378;11.776;2023-01-24T14:43:40;-1.10;99.90
9977;DHT22;5029;47.378;11.776;2023-01-24T14:48:43;-1.20;99.90
9977;DHT22;5029;47.378;11.776;2023-01-24T14:53:50;-1.40;99.90
9977;DHT22;5029;47.378;11.776;2023-01-24T14:59:09;-1.70;99.90
9977;DHT22;5029;47.378;11.776;2023-01-24T15:04:24;-2.20;99.90
9977;DHT22;5029;47.378;11.776;2023-01-24T15:09:28;-2.30;99.90
9977;DHT22;5029;47.378;11.776;2023-01-24T15:14:32;-2.50;99.90
9977;DHT22;5029;47.378;11.776;2023-01-24T15:19:36;-2.60;99.90
9977;DHT22;5029;47.378;11.776;2023-01-24T15:24:40;-2.40;99.90
9977;DHT22;5029;47.378;11.776;2023-01-24T15:29:45;-2.50;99.90
9977;DHT22;5029;47.378;11.776;2023-01-24T15:34:48;-2.70;99.90
9977;DHT22;5029;47.378;11.776;2023-01-24T15:39:57;-2.90;99.90
9977;DHT22;5029;47.378;11.776;2023-01-24T15:45:01;-3.00;99.90
9977;DHT22;5029;47.378;11.776;2023-01-24T15:50:16;-3.20;99.90
9977;DHT22;5029;47.378;11.776;2023-01-24T15:55:38;-3.30;99.90
9977;DHT22;5029;47.378;11.776;2023-01-24T16:00:50;-3.50;99.90
9977;DHT22;5029;47.378;11.776;2023-01-24T16:05:54;-3.50;99.90
9977;DHT22;5029;47.378;11.776;2023-01-24T16:10:59;-3.40;99.90
9977;DHT22;5029;47.378;11.776;2023-01-24T16:16:05;-3.60;99.90
9977;DHT22;5029;47.378;11.776;2023-01-24T16:21:10;-3.60;99.90
9977;DHT22;5029;47.378;11.776;2023-01-24T16:26:20;-3.50;99.90
9977;DHT22;5029;47.378;11.776;2023-01-24T16:31:25;-3.40;99.90
9977;DHT22;5029;47.378;11.776;2023-01-24T16:36:28;-3.70;99.90
9977;DHT22;5029;47.378;11.776;2023-01-24T16:41:34;-3.80;99.90
9977;DHT22;5029;47.378;11.776;2023-01-24T16:46:37;-3.80;99.90
9977;DHT22;5029;47.378;11.776;2023-01-24T16:51:42;-3.80;99.90
9977;DHT22;5029;47.378;11.776;2023-01-24T16:56:47;-3.80;99.90
9977;DHT22;5029;47.378;11.776;2023-01-24T17:01:51;-3.90;99.90
9977;DHT22;5029;47.378;11.776;2023-01-24T17:06:55;-3.90;99.90
9977;DHT22;5029;47.378;11.776;2023-01-24T17:12:05;-3.90;99.90
9977;DHT22;5029;47.378;11.776;2023-01-24T17:17:16;-4.00;99.90
9977;DHT22;5029;47.378;11.776;2023-01-24T17:22:20;-3.80;99.90
9977;DHT22;5029;47.378;11.776;2023-01-24T17:27:25;-3.90;99.90
9977;DHT22;5029;47.378;11.776;2023-01-24T17:32:32;-4.00;99.90
9977;DHT22;5029;47.378;11.776;2023-01-24T17:37:38;-4.00;99.90
9977;DHT22;5029;47.378;11.776;2023-01-24T17:42:45;-4.00;99.90
9977;DHT22;5029;47.378;11.776;2023-01-24T17:47:51;-4.10;99.90
9977;DHT22;5029;47.378;11.776;2023-01-24T17:52:55;-4.00;99.90
9977;DHT22;5029;47.378;11.776;2023-01-24T17:58:01;-4.00;99.90
9977;DHT22;5029;47.378;11.776;2023-01-24T18:03:06;-4.00;99.90
9977;DHT22;5029;47.378;11.776;2023-01-24T18:08:12;-4.20;99.90
9977;DHT22;5029;47.378;11.776;2023-01-24T18:13:19;-4.40;99.90
9977;DHT22;5029;47.378;11.776;2023-01-24T18:18:23;-4.50;99.90
9977;DHT22;5029;47.378;11.776;2023-01-24T18:23:28;-4.40;99.90
9977;DHT22;5029;47.378;11.776;2023-01-24T18:28:35;-4.40;99.90
9977;DHT22;5029;47.378;11.776;2023-01-24T18:33:40;-4.30;99.90
9977;DHT22;5029;47.378;11.776;2023-01-24T18:38:46;-4.20;99.90
9977;DHT22;5029;47.378;11.776;2023-01-24T18:43:55;-4.40;99.90
9977;DHT22;5029;47.378;11.776;2023-01-24T18:49:01;-4.80;99.90
9977;DHT22;5029;47.378;11.776;2023-01-24T18:54:06;-4.80;99.90
9977;DHT22;5029;47.378;11.776;2023-01-24T18:59:15;-4.70;99.90
9977;DHT22;5029;47.378;11.776;2023-01-24T19:04:20;-4.70;99.90
9977;DHT22;5029;47.378;11.776;2023-01-24T19:09:25;-4.90;99.90
9977;DHT22;5029;47.378;11.776;2023-01-24T19:14:32;-4.50;99.90
9977;DHT22;5029;47.378;11.776;2023-01-24T19:19:37;-4.60;99.90
9977;DHT22;5029;47.378;11.776;2023-01-24T19:24:46;-4.50;99.90
9977;DHT22;5029;47.378;11.776;2023-01-24T19:29:54;-4.20;99.90
9977;DHT22;5029;47.378;11.776;2023-01-24T19:34:59;-4.10;99.90
9977;DHT22;5029;47.378;11.776;2023-01-24T19:40:05;-4.00;99.90
9977;DHT22;5029;47.378;11.776;2023-01-24T19:45:13;-3.90;99.90
9977;DHT22;5029;47.378;11.776;2023-01-24T19:50:18;-4.00;99.90
9977;DHT22;5029;47.378;11.776;2023-01-24T19:55:24;-4.00;99.90
9977;DHT22;5029;47.378;11.776;2023-01-24T20:00:31;-3.90;99.90
9977;DHT22;5029;47.378;11.776;2023-01-24T20:05:40;-3.90;99.90
9977;DHT22;5029;47.378;11.776;2023-01-24T20:10:44;-4.10;99.90
9977;DHT22;5029;47.378;11.776;2023-01-24T20:15:51;-4.20;99.90
9977;DHT22;5029;47.378;11.776;2023-01-24T20:20:57;-4.30;99.90
9977;DHT22;5029;47.378;11.776;2023-01-24T20:26:03;-4.30;99.90
9977;DHT22;5029;47.378;11.776;2023-01-24T20:31:11;-4.10;99.90
9977;DHT22;5029;47.378;11.776;2023-01-24T20:36:18;-4.20;99.90
9977;DHT22;5029;47.378;11.776;2023-01-24T20:41:23;-4.30;99.90
9977;DHT22;5029;47.378;11.776;2023-01-24T20:46:29;-4.30;99.90
9977;DHT22;5029;47.378;11.776;2023-01-24T20:51:34;-4.40;99.90
9977;DHT22;5029;47.378;11.776;2023-01-24T20:56:40;-4.20;99.90
9977;DHT22;5029;47.378;11.776;2023-01-24T21:01:51;-4.20;99.90
9977;DHT22;5029;47.378;11.776;2023-01-24T21:06:55;-4.10;99.90
9977;DHT22;5029;47.378;11.776;2023-01-24T21:11:59;-4.20;99.90
9977;DHT22;5029;47.378;11.776;2023-01-24T21:17:05;-4.30;99.90
9977;DHT22;5029;47.378;11.776;2023-01-24T21:22:09;-4.50;99.90
9977;DHT22;5029;47.378;11.776;2023-01-24T21:27:14;-4.60;99.90
9977;DHT22;5029;47.378;11.776;2023-01-24T21:32:19;-4.60;99.90
9977;DHT22;5029;47.378;11.776;2023-01-24T21:37:23;-4.50;99.90
9977;DHT22;5029;47.378;11.776;2023-01-24T21:42:29;-4.40;99.90
9977;DHT22;5029;47.378;11.776;2023-01-24T21:47:34;-4.60;99.90
9977;DHT22;5029;47.378;11.776;2023-01-24T21:52:37;-4.90;99.90
9977;DHT22;5029;47.378;11.776;2023-01-24T21:57:41;-4.90;99.90
9977;DHT22;5029;47.378;11.776;2023-01-24T22:03:03;-4.80;99.90
9977;DHT22;5029;47.378;11.776;2023-01-24T22:08:20;-4.60;99.90
9977;DHT22;5029;47.378;11.776;2023-01-24T22:13:24;-4.50;99.90
9977;DHT22;5029;47.378;11.776;2023-01-24T22:18:29;-4.50;99.90
9977;DHT22;5029;47.378;11.776;2023-01-24T22:23:34;-4.60;99.90
9977;DHT22;5029;47.378;11.776;2023-01-24T22:28:39;-4.60;99.90
9977;DHT22;5029;47.378;11.776;2023-01-24T22:33:45;-4.90;99.90
9977;DHT22;5029;47.378;11.776;2023-01-24T22:38:48;-4.90;99.90
9977;DHT22;5029;47.378;11.776;2023-01-24T22:43:52;-5.00;99.90
9977;DHT22;5029;47.378;11.776;2023-01-24T22:48:57;-5.10;99.90
9977;DHT22;5029;47.378;11.776;2023-01-24T22:54:00;-5.10;99.90
9977;DHT22;5029;47.378;11.776;2023-01-24T22:59:03;-5.20;99.90
9977;DHT22;5029;47.378;11.776;2023-01-24T23:04:08;-5.30;99.90
9977;DHT22;5029;47.378;11.776;2023-01-24T23:09:12;-5.30;99.90
9977;DHT22;5029;47.378;11.776;2023-01-24T23:14:16;-5.70;99.90
9977;DHT22;5029;47.378;11.776;2023-01-24T23:19:40;-5.70;99.90
9977;DHT22;5029;47.378;11.776;2023-01-24T23:25:02;-5.80;99.90
9977;DHT22;5029;47.378;11.776;2023-01-24T23:30:29;-5.50;99.90
9977;DHT22;5029;47.378;11.776;2023-01-24T23:35:59;-5.20;99.90
9977;DHT22;5029;47.378;11.776;2023-01-24T23:41:03;-5.10;99.90
9977;DHT22;5029;47.378;11.776;2023-01-24T23:46:08;-5.90;99.90
9977;DHT22;5029;47.378;11.776;2023-01-24T23:51:13;-5.60;99.90
9977;DHT22;5029;47.378;11.776;2023-01-24T23:56:16;-5.50;99.90
